createdAt,value
2022-11-27T00:00:13.471Z,0.47
2022-11-27T00:05:20.257Z,0.49
2022-11-27T00:10:24.319Z,0.45
2022-11-27T00:15:28.369Z,0.52
2022-11-27T00:20:34.099Z,0.62
2022-11-27T00:25:38.092Z,0.36
2022-11-27T00:30:42.130Z,0.58
2022-11-27T00:35:47.714Z,0.80
2022-11-27T00:40:51.745Z,0.60
2022-11-27T00:45:55.739Z,0.63
2022-11-27T00:51:02.422Z,0.37
2022-11-27T00:56:07.115Z,0.37
2022-11-27T01:01:17.887Z,0.29
2022-11-27T01:06:24.115Z,0.14
2022-11-27T01:11:30.380Z,0.12
2022-11-27T01:16:37.706Z,0.34
2022-11-27T01:21:46.822Z,0.34
2022-11-27T01:26:50.903Z,0.19
2022-11-27T01:31:54.922Z,-0.10
2022-11-27T01:37:00.498Z,-0.04
2022-11-27T01:42:05.030Z,-0.02
2022-11-27T01:47:14.971Z,-0.07
2022-11-27T01:52:22.263Z,0.01
2022-11-27T01:57:33.362Z,-0.12
2022-11-27T02:02:37.552Z,-0.09
2022-11-27T02:07:43.261Z,-0.02
2022-11-27T02:12:56.359Z,0.09
2022-11-27T02:18:07.965Z,-0.17
2022-11-27T02:23:42.477Z,0.04
2022-11-27T02:29:01.625Z,0.10
2022-11-27T02:34:14.744Z,0.17
2022-11-27T02:39:24.431Z,0.18
2022-11-27T02:44:34.266Z,0.27
2022-11-27T02:49:39.827Z,0.44
2022-11-27T02:54:47.525Z,0.33
2022-11-27T02:59:56.198Z,0.47
2022-11-27T03:05:03.992Z,0.51
2022-11-27T03:10:14.984Z,0.54
2022-11-27T03:15:22.129Z,0.49
2022-11-27T03:20:29.247Z,0.28
2022-11-27T03:25:33.638Z,0.42
2022-11-27T03:30:41.965Z,0.59
2022-11-27T03:35:45.945Z,0.60
2022-11-27T03:41:01.300Z,0.42
2022-11-27T03:46:12.410Z,0.57
2022-11-27T03:51:22.451Z,0.38
2022-11-27T03:56:35.278Z,0.60
2022-11-27T04:01:41.303Z,0.33
2022-11-27T04:06:45.430Z,0.59
2022-11-27T04:11:49.468Z,0.59
2022-11-27T04:16:54.815Z,0.59
2022-11-27T04:21:59.013Z,0.55
2022-11-27T04:27:03.130Z,0.60
2022-11-27T04:32:08.638Z,0.38
2022-11-27T04:37:12.714Z,0.62
2022-11-27T04:42:16.711Z,0.65
2022-11-27T04:47:22.211Z,0.57
2022-11-27T04:52:26.197Z,0.64
2022-11-27T04:57:30.327Z,0.61
2022-11-27T05:02:35.755Z,0.62
2022-11-27T05:07:39.972Z,0.86
2022-11-27T05:12:44.031Z,0.65
2022-11-27T05:17:49.608Z,0.56
2022-11-27T05:22:53.754Z,0.59
2022-11-27T05:27:58.304Z,0.90
2022-11-27T05:33:03.840Z,0.96
2022-11-27T05:38:10.351Z,1.19
2022-11-27T05:43:14.323Z,1.15
2022-11-27T05:48:20.235Z,1.12
2022-11-27T05:53:28.813Z,1.12
2022-11-27T05:58:33.526Z,1.27
2022-11-27T06:03:39.880Z,1.37
2022-11-27T06:08:44.472Z,1.40
2022-11-27T06:13:50.073Z,1.32
2022-11-27T06:18:57.337Z,0.90
2022-11-27T06:24:01.528Z,0.76
2022-11-27T06:29:05.597Z,0.81
2022-11-27T06:34:13.545Z,0.97
2022-11-27T06:39:17.633Z,1.21
2022-11-27T06:44:21.700Z,1.01
2022-11-27T06:49:27.241Z,1.08
2022-11-27T06:54:31.630Z,0.80
2022-11-27T06:59:36.003Z,0.98
2022-11-27T07:04:41.721Z,1.30
2022-11-27T07:09:45.912Z,1.45
2022-11-27T07:14:50.091Z,1.68
2022-11-27T07:19:55.648Z,2.07
2022-11-27T07:25:00.170Z,2.14
2022-11-27T07:30:04.873Z,2.16
2022-11-27T07:35:11.851Z,2.36
2022-11-27T07:40:16.181Z,2.10
2022-11-27T07:45:23.285Z,2.35
2022-11-27T07:50:28.811Z,2.49
2022-11-27T07:55:32.982Z,2.42
2022-11-27T08:00:37.887Z,2.53
2022-11-27T08:05:43.587Z,2.73
2022-11-27T08:10:47.702Z,3.24
2022-11-27T08:15:51.766Z,3.46
2022-11-27T08:20:57.241Z,3.90
2022-11-27T08:26:01.410Z,4.37
2022-11-27T08:31:09.358Z,4.76
2022-11-27T08:36:18.421Z,4.67
2022-11-27T08:41:22.894Z,4.56
2022-11-27T08:46:26.914Z,4.99
2022-11-27T08:51:32.446Z,5.10
2022-11-27T08:56:37.898Z,4.69
2022-11-27T09:01:41.971Z,4.74
2022-11-27T09:06:48.995Z,4.88
2022-11-27T09:11:55.963Z,5.15
2022-11-27T09:16:59.958Z,4.92
2022-11-27T09:22:05.464Z,4.90
2022-11-27T09:27:09.560Z,4.93
2022-11-27T09:32:13.542Z,4.76
2022-11-27T09:37:19.146Z,4.49
2022-11-27T09:42:41.196Z,4.71
2022-11-27T09:47:50.228Z,4.21
2022-11-27T09:53:00.088Z,4.39
2022-11-27T09:58:08.490Z,4.59
2022-11-27T10:03:15.287Z,4.48
2022-11-27T10:08:37.299Z,4.43
2022-11-27T10:13:58.299Z,4.34
2022-11-27T10:19:15.698Z,3.99
2022-11-27T10:24:30.036Z,4.30
2022-11-27T10:29:44.355Z,4.50
2022-11-27T10:34:54.697Z,4.41
2022-11-27T10:40:03.860Z,4.25
2022-11-27T10:45:18.036Z,4.13
2022-11-27T10:50:22.316Z,4.42
2022-11-27T10:55:43.336Z,4.46
2022-11-27T11:00:48.508Z,4.26
2022-11-27T11:06:19.968Z,3.98
2022-11-27T11:11:28.203Z,4.04
2022-11-27T11:16:35.706Z,4.05
2022-11-27T11:21:42.636Z,4.27
2022-11-27T11:26:51.108Z,3.95
2022-11-27T11:31:57.957Z,3.81
2022-11-27T11:37:05.324Z,3.75
2022-11-27T11:42:19.916Z,3.62
2022-11-27T11:47:26.911Z,3.76
2022-11-27T11:52:55.131Z,4.04
2022-11-27T11:58:22.420Z,4.09
2022-11-27T12:03:33.938Z,4.05
2022-11-27T12:08:46.100Z,4.17
2022-11-27T12:14:04.432Z,4.07
2022-11-27T12:19:41.643Z,4.15
2022-11-27T12:24:49.778Z,4.06
2022-11-27T12:30:14.222Z,4.21
2022-11-27T12:35:32.460Z,4.15
2022-11-27T12:40:50.140Z,3.98
2022-11-27T12:46:02.902Z,3.97
2022-11-27T12:51:12.846Z,3.86
2022-11-27T12:56:24.708Z,3.93
2022-11-27T13:01:36.471Z,3.98
2022-11-27T13:06:54.396Z,3.94
2022-11-27T13:11:59.412Z,3.87
2022-11-27T13:17:11.836Z,3.78
2022-11-27T13:22:21.686Z,3.79
2022-11-27T13:27:29.807Z,3.86
2022-11-27T13:32:41.603Z,3.93
2022-11-27T13:37:46.338Z,3.75
2022-11-27T13:42:55.263Z,3.80
2022-11-27T13:48:03.133Z,3.58
2022-11-27T13:53:08.599Z,3.58
2022-11-27T13:58:13.115Z,3.69
2022-11-27T14:03:24.913Z,3.69
2022-11-27T14:08:33.198Z,3.67
2022-11-27T14:13:42.329Z,3.58
2022-11-27T14:18:52.965Z,3.65
2022-11-27T14:23:57.279Z,3.54
2022-11-27T14:29:01.925Z,3.30
2022-11-27T14:34:15.615Z,3.18
2022-11-27T14:39:24.070Z,3.31
2022-11-27T14:44:28.449Z,3.17
2022-11-27T14:49:36.119Z,3.10
2022-11-27T14:54:41.549Z,3.14
2022-11-27T14:59:47.281Z,3.04
2022-11-27T15:05:03.728Z,2.94
2022-11-27T15:10:22.807Z,3.03
2022-11-27T15:15:28.682Z,2.85
2022-11-27T15:20:41.106Z,3.08
2022-11-27T15:25:48.156Z,3.18
2022-11-27T15:30:52.331Z,3.17
2022-11-27T15:36:17.694Z,3.07
2022-11-27T15:41:24.288Z,3.02
2022-11-27T15:46:31.864Z,2.91
2022-11-27T15:51:37.493Z,2.88
2022-11-27T15:56:41.632Z,2.96
2022-11-27T16:01:45.841Z,2.98
2022-11-27T16:06:51.484Z,2.93
2022-11-27T16:11:55.807Z,2.85
2022-11-27T16:17:01.479Z,2.81
2022-11-27T16:22:07.070Z,2.73
2022-11-27T16:27:11.140Z,2.72
2022-11-27T16:32:15.162Z,2.50
2022-11-27T16:37:21.013Z,2.35
2022-11-27T16:42:25.712Z,2.45
2022-11-27T16:47:33.806Z,2.41
2022-11-27T16:52:40.525Z,2.51
2022-11-27T16:57:44.772Z,2.34
2022-11-27T17:02:49.482Z,2.34
2022-11-27T17:07:55.835Z,2.24
2022-11-27T17:12:59.962Z,2.34
2022-11-27T17:18:05.252Z,2.35
2022-11-27T17:23:11.466Z,2.30
2022-11-27T17:28:15.582Z,2.29
2022-11-27T17:33:20.072Z,2.48
2022-11-27T17:38:26.752Z,2.24
2022-11-27T17:43:31.296Z,2.27
2022-11-27T17:48:35.985Z,2.43
2022-11-27T17:53:43.348Z,2.26
2022-11-27T17:58:48.003Z,2.45
2022-11-27T18:03:53.019Z,2.38
2022-11-27T18:08:59.036Z,2.43
2022-11-27T18:14:03.661Z,2.37
2022-11-27T18:19:09.538Z,2.34
2022-11-27T18:24:23.960Z,2.52
2022-11-27T18:29:29.001Z,2.44
2022-11-27T18:34:33.460Z,2.47
2022-11-27T18:39:40.207Z,2.39
2022-11-27T18:44:45.407Z,2.51
2022-11-27T18:49:50.644Z,2.56
2022-11-27T18:54:56.138Z,2.52
2022-11-27T19:00:00.170Z,2.58
2022-11-27T19:05:07.381Z,2.39
2022-11-27T19:10:14.111Z,2.51
2022-11-27T19:15:18.375Z,2.50
2022-11-27T19:20:22.590Z,2.34
2022-11-27T19:25:28.917Z,2.42
2022-11-27T19:30:34.191Z,2.50
2022-11-27T19:35:38.878Z,2.36
2022-11-27T19:40:44.811Z,2.35
2022-11-27T19:45:49.562Z,2.37
2022-11-27T19:50:55.557Z,2.39
2022-11-27T19:56:01.513Z,2.39
2022-11-27T20:01:09.739Z,2.60
2022-11-27T20:06:15.901Z,2.74
2022-11-27T20:11:23.269Z,2.62
2022-11-27T20:16:28.279Z,2.69
2022-11-27T20:21:32.854Z,2.72
2022-11-27T20:26:42.413Z,2.60
2022-11-27T20:31:47.017Z,2.77
2022-11-27T20:36:51.576Z,2.56
2022-11-27T20:41:57.193Z,2.59
2022-11-27T20:47:01.444Z,2.49
2022-11-27T20:52:05.731Z,2.43
2022-11-27T20:57:14.300Z,2.28
2022-11-27T21:02:18.704Z,2.33
2022-11-27T21:07:22.951Z,2.23
2022-11-27T21:12:29.124Z,2.19
2022-11-27T21:17:33.439Z,2.14
2022-11-27T21:22:37.843Z,2.06
2022-11-27T21:27:43.356Z,2.04
2022-11-27T21:32:47.704Z,2.09
2022-11-27T21:37:51.951Z,1.77
2022-11-27T21:42:57.498Z,1.54
2022-11-27T21:48:01.566Z,1.47
2022-11-27T21:53:05.775Z,1.53
2022-11-27T21:58:11.738Z,1.50
2022-11-27T22:03:17.021Z,1.26
2022-11-27T22:08:21.080Z,1.32
2022-11-27T22:13:28.317Z,1.33
2022-11-27T22:18:32.216Z,1.32
2022-11-27T22:23:36.650Z,1.22
2022-11-27T22:28:42.831Z,1.14
2022-11-27T22:33:47.605Z,1.28
2022-11-27T22:38:54.379Z,1.13
2022-11-27T22:44:02.573Z,1.04
2022-11-27T22:49:08.465Z,1.01
2022-11-27T22:54:17.174Z,1.09
2022-11-27T22:59:32.100Z,0.93
2022-11-27T23:04:38.495Z,0.84
2022-11-27T23:09:42.677Z,0.96
2022-11-27T23:14:48.326Z,1.03
2022-11-27T23:19:52.790Z,1.13
2022-11-27T23:24:56.935Z,1.08
2022-11-27T23:30:02.485Z,1.01
2022-11-27T23:35:06.991Z,1.08
2022-11-27T23:40:11.480Z,0.89
2022-11-27T23:45:17.052Z,1.08
2022-11-27T23:50:21.044Z,0.97
2022-11-27T23:55:25.028Z,1.07
